sensor_id;sensor_type;location;lat;lon;timestamp;pressure;altitude;pressure_sealevel;temperature;humidity
62712;BME280;48772;55.586;37.730;2023-01-09T00:00:50;100958.91;;;-15.31;100.00
62712;BME280;48772;55.586;37.730;2023-01-09T00:03:17;100932.38;;;-15.53;100.00
62712;BME280;48772;55.586;37.730;2023-01-09T00:05:43;100948.00;;;-15.47;100.00
62712;BME280;48772;55.586;37.730;2023-01-09T00:08:09;100949.41;;;-15.54;100.00
62712;BME280;48772;55.586;37.730;2023-01-09T00:10:35;101002.19;;;-15.35;100.00
62712;BME280;48772;55.586;37.730;2023-01-09T00:13:01;100998.72;;;-15.37;100.00
62712;BME280;48772;55.586;37.730;2023-01-09T00:15:27;100848.69;;;-16.17;100.00
62712;BME280;48772;55.586;37.730;2023-01-09T00:17:54;100913.47;;;-15.96;100.00
62712;BME280;48772;55.586;37.730;2023-01-09T00:20:20;101012.94;;;-15.42;100.00
62712;BME280;48772;55.586;37.730;2023-01-09T00:22:46;100851.25;;;-16.36;100.00
62712;BME280;48772;55.586;37.730;2023-01-09T00:25:13;101013.38;;;-15.52;100.00
62712;BME280;48772;55.586;37.730;2023-01-09T00:27:39;100934.69;;;-15.97;100.00
62712;BME280;48772;55.586;37.730;2023-01-09T00:30:05;101009.94;;;-15.53;100.00
62712;BME280;48772;55.586;37.730;2023-01-09T00:32:32;101009.88;;;-15.54;100.00
62712;BME280;48772;55.586;37.730;2023-01-09T00:34:57;101003.69;;;-15.59;100.00
62712;BME280;48772;55.586;37.730;2023-01-09T00:37:23;101012.28;;;-15.57;100.00
62712;BME280;48772;55.586;37.730;2023-01-09T00:39:49;101008.97;;;-15.55;100.00
62712;BME280;48772;55.586;37.730;2023-01-09T00:42:19;100989.50;;;-15.72;100.00
62712;BME280;48772;55.586;37.730;2023-01-09T00:44:50;101006.84;;;-15.65;100.00
62712;BME280;48772;55.586;37.730;2023-01-09T00:47:23;100964.63;;;-15.95;100.00
62712;BME280;48772;55.586;37.730;2023-01-09T00:49:50;100990.25;;;-15.92;100.00
62712;BME280;48772;55.586;37.730;2023-01-09T00:52:18;100951.78;;;-16.14;100.00
62712;BME280;48772;55.586;37.730;2023-01-09T00:54:45;100999.03;;;-15.87;100.00
62712;BME280;48772;55.586;37.730;2023-01-09T00:57:13;100981.16;;;-16.04;100.00
62712;BME280;48772;55.586;37.730;2023-01-09T00:59:40;100999.41;;;-15.97;100.00
62712;BME280;48772;55.586;37.730;2023-01-09T01:02:07;100948.00;;;-16.41;100.00
62712;BME280;48772;55.586;37.730;2023-01-09T01:04:33;100998.25;;;-16.21;100.00
62712;BME280;48772;55.586;37.730;2023-01-09T01:07:18;100986.41;;;-16.38;100.00
62712;BME280;48772;55.586;37.730;2023-01-09T01:10:22;100936.31;;;-16.72;100.00
62712;BME280;48772;55.586;37.730;2023-01-09T01:12:49;101013.53;;;-16.40;100.00
62712;BME280;48772;55.586;37.730;2023-01-09T01:15:17;100980.31;;;-16.59;100.00
62712;BME280;48772;55.586;37.730;2023-01-09T01:17:43;100950.47;;;-16.79;100.00
62712;BME280;48772;55.586;37.730;2023-01-09T01:20:12;101006.72;;;-16.58;100.00
62712;BME280;48772;55.586;37.730;2023-01-09T01:22:39;100980.03;;;-16.82;100.00
62712;BME280;48772;55.586;37.730;2023-01-09T01:25:08;101003.88;;;-16.64;100.00
62712;BME280;48772;55.586;37.730;2023-01-09T01:27:34;100992.13;;;-16.78;100.00
62712;BME280;48772;55.586;37.730;2023-01-09T01:30:00;101002.63;;;-16.72;100.00
62712;BME280;48772;55.586;37.730;2023-01-09T01:32:28;101001.47;;;-16.79;100.00
62712;BME280;48772;55.586;37.730;2023-01-09T01:34:54;101006.91;;;-16.71;100.00
62712;BME280;48772;55.586;37.730;2023-01-09T01:37:20;101010.50;;;-16.68;100.00
62712;BME280;48772;55.586;37.730;2023-01-09T01:39:47;101007.56;;;-16.75;100.00
62712;BME280;48772;55.586;37.730;2023-01-09T01:42:13;101008.22;;;-16.79;100.00
62712;BME280;48772;55.586;37.730;2023-01-09T01:47:58;101024.34;;;-16.80;100.00
62712;BME280;48772;55.586;37.730;2023-01-09T01:50:44;101023.69;;;-16.76;100.00
62712;BME280;48772;55.586;37.730;2023-01-09T01:53:23;100962.19;;;-17.16;100.00
62712;BME280;48772;55.586;37.730;2023-01-09T01:58:23;100999.25;;;-17.06;100.00
62712;BME280;48772;55.586;37.730;2023-01-09T02:00:50;100999.72;;;-17.13;100.00
62712;BME280;48772;55.586;37.730;2023-01-09T02:03:19;101026.63;;;-17.02;100.00
62712;BME280;48772;55.586;37.730;2023-01-09T02:05:47;101012.31;;;-17.16;100.00
62712;BME280;48772;55.586;37.730;2023-01-09T02:08:14;101016.59;;;-17.15;100.00
62712;BME280;48772;55.586;37.730;2023-01-09T02:10:40;101020.47;;;-17.06;100.00
62712;BME280;48772;55.586;37.730;2023-01-09T02:13:06;101021.06;;;-17.11;100.00
62712;BME280;48772;55.586;37.730;2023-01-09T02:15:54;101009.00;;;-17.31;100.00
62712;BME280;48772;55.586;37.730;2023-01-09T02:18:44;101007.78;;;-17.38;100.00
62712;BME280;48772;55.586;37.730;2023-01-09T02:21:42;100965.59;;;-17.66;100.00
62712;BME280;48772;55.586;37.730;2023-01-09T02:32:57;100992.50;;;-17.71;100.00
62712;BME280;48772;55.586;37.730;2023-01-09T02:43:12;101040.22;;;-17.51;100.00
62712;BME280;48772;55.586;37.730;2023-01-09T02:45:38;101030.69;;;-17.55;100.00
62712;BME280;48772;55.586;37.730;2023-01-09T02:48:04;101013.03;;;-17.68;100.00
62712;BME280;48772;55.586;37.730;2023-01-09T02:50:35;100948.22;;;-18.05;100.00
62712;BME280;48772;55.586;37.730;2023-01-09T02:53:13;101042.78;;;-17.51;100.00
62712;BME280;48772;55.586;37.730;2023-01-09T02:56:08;101037.75;;;-17.50;100.00
62712;BME280;48772;55.586;37.730;2023-01-09T03:06:59;101008.22;;;-17.62;100.00
62712;BME280;48772;55.586;37.730;2023-01-09T03:09:30;101019.06;;;-17.50;100.00
62712;BME280;48772;55.586;37.730;2023-01-09T03:12:03;101031.50;;;-17.39;100.00
62712;BME280;48772;55.586;37.730;2023-01-09T03:14:34;101049.13;;;-17.27;100.00
62712;BME280;48772;55.586;37.730;2023-01-09T03:17:09;101060.59;;;-17.35;100.00
62712;BME280;48772;55.586;37.730;2023-01-09T03:19:37;101056.34;;;-17.35;100.00
62712;BME280;48772;55.586;37.730;2023-01-09T03:22:04;101036.97;;;-17.49;100.00
62712;BME280;48772;55.586;37.730;2023-01-09T03:24:32;101005.31;;;-17.70;100.00
62712;BME280;48772;55.586;37.730;2023-01-09T03:26:58;101044.84;;;-17.44;100.00
62712;BME280;48772;55.586;37.730;2023-01-09T03:29:24;101026.00;;;-17.48;100.00
62712;BME280;48772;55.586;37.730;2023-01-09T03:31:50;101034.81;;;-17.41;100.00
62712;BME280;48772;55.586;37.730;2023-01-09T03:34:16;101007.91;;;-17.52;100.00
62712;BME280;48772;55.586;37.730;2023-01-09T03:36:41;101057.69;;;-17.25;100.00
62712;BME280;48772;55.586;37.730;2023-01-09T03:39:33;101070.44;;;-17.09;100.00
62712;BME280;48772;55.586;37.730;2023-01-09T03:42:34;101076.66;;;-17.04;100.00
62712;BME280;48772;55.586;37.730;2023-01-09T03:44:59;101071.63;;;-17.03;100.00
62712;BME280;48772;55.586;37.730;2023-01-09T03:47:25;101020.69;;;-17.35;100.00
62712;BME280;48772;55.586;37.730;2023-01-09T03:49:52;101063.28;;;-17.16;100.00
62712;BME280;48772;55.586;37.730;2023-01-09T03:52:17;101019.22;;;-17.47;100.00
62712;BME280;48772;55.586;37.730;2023-01-09T03:54:43;101047.50;;;-17.25;100.00
62712;BME280;48772;55.586;37.730;2023-01-09T03:57:09;100995.81;;;-17.56;100.00
62712;BME280;48772;55.586;37.730;2023-01-09T03:59:35;101031.44;;;-17.40;100.00
62712;BME280;48772;55.586;37.730;2023-01-09T04:02:01;101051.75;;;-17.42;100.00
62712;BME280;48772;55.586;37.730;2023-01-09T04:04:27;101069.88;;;-17.20;100.00
62712;BME280;48772;55.586;37.730;2023-01-09T04:06:53;101052.78;;;-17.38;100.00
62712;BME280;48772;55.586;37.730;2023-01-09T04:09:19;101072.13;;;-17.26;100.00
62712;BME280;48772;55.586;37.730;2023-01-09T04:11:45;101043.66;;;-17.51;100.00
62712;BME280;48772;55.586;37.730;2023-01-09T04:14:11;101066.88;;;-17.29;100.00
62712;BME280;48772;55.586;37.730;2023-01-09T04:16:37;101087.03;;;-17.17;100.00
62712;BME280;48772;55.586;37.730;2023-01-09T04:19:03;101068.63;;;-17.28;100.00
62712;BME280;48772;55.586;37.730;2023-01-09T04:21:29;101060.81;;;-17.31;100.00
62712;BME280;48772;55.586;37.730;2023-01-09T04:23:55;101085.56;;;-17.12;100.00
62712;BME280;48772;55.586;37.730;2023-01-09T04:26:22;101047.31;;;-17.46;100.00
62712;BME280;48772;55.586;37.730;2023-01-09T04:28:48;101097.44;;;-17.13;100.00
62712;BME280;48772;55.586;37.730;2023-01-09T04:31:14;101083.19;;;-17.25;100.00
62712;BME280;48772;55.586;37.730;2023-01-09T04:33:39;101108.03;;;-17.21;100.00
62712;BME280;48772;55.586;37.730;2023-01-09T04:36:06;101088.91;;;-17.29;100.00
62712;BME280;48772;55.586;37.730;2023-01-09T04:38:34;101021.31;;;-17.72;100.00
62712;BME280;48772;55.586;37.730;2023-01-09T04:41:00;101097.19;;;-17.33;100.00
62712;BME280;48772;55.586;37.730;2023-01-09T04:43:27;101110.09;;;-17.30;100.00
62712;BME280;48772;55.586;37.730;2023-01-09T04:45:56;101078.13;;;-17.57;100.00
62712;BME280;48772;55.586;37.730;2023-01-09T04:48:22;101105.19;;;-17.43;100.00
62712;BME280;48772;55.586;37.730;2023-01-09T04:50:48;100960.06;;;-18.38;100.00
62712;BME280;48772;55.586;37.730;2023-01-09T04:53:14;101030.44;;;-17.92;100.00
62712;BME280;48772;55.586;37.730;2023-01-09T04:55:40;100967.31;;;-18.45;100.00
62712;BME280;48772;55.586;37.730;2023-01-09T04:58:07;101111.34;;;-17.56;100.00
62712;BME280;48772;55.586;37.730;2023-01-09T05:00:34;100968.25;;;-18.43;100.00
62712;BME280;48772;55.586;37.730;2023-01-09T05:03:00;101139.75;;;-17.48;100.00
62712;BME280;48772;55.586;37.730;2023-01-09T05:05:28;101114.81;;;-17.70;100.00
62712;BME280;48772;55.586;37.730;2023-01-09T05:07:57;101147.13;;;-17.53;100.00
62712;BME280;48772;55.586;37.730;2023-01-09T05:10:25;101062.63;;;-17.92;100.00
62712;BME280;48772;55.586;37.730;2023-01-09T05:12:52;101060.53;;;-17.99;100.00
62712;BME280;48772;55.586;37.730;2023-01-09T05:15:20;101136.38;;;-17.47;100.00
62712;BME280;48772;55.586;37.730;2023-01-09T05:17:47;101080.47;;;-17.76;100.00
62712;BME280;48772;55.586;37.730;2023-01-09T05:20:14;101074.09;;;-17.84;100.00
62712;BME280;48772;55.586;37.730;2023-01-09T05:22:40;101060.88;;;-17.93;100.00
62712;BME280;48772;55.586;37.730;2023-01-09T05:25:10;101046.56;;;-17.91;100.00
62712;BME280;48772;55.586;37.730;2023-01-09T05:27:36;101136.47;;;-17.46;100.00
62712;BME280;48772;55.586;37.730;2023-01-09T05:30:02;101109.25;;;-17.63;100.00
62712;BME280;48772;55.586;37.730;2023-01-09T05:32:29;101080.47;;;-17.76;100.00
62712;BME280;48772;55.586;37.730;2023-01-09T05:34:56;101092.44;;;-17.75;100.00
62712;BME280;48772;55.586;37.730;2023-01-09T05:37:21;101144.03;;;-17.47;100.00
62712;BME280;48772;55.586;37.730;2023-01-09T05:39:47;101090.06;;;-17.72;100.00
62712;BME280;48772;55.586;37.730;2023-01-09T05:42:13;101151.84;;;-17.44;100.00
62712;BME280;48772;55.586;37.730;2023-01-09T05:44:39;101141.66;;;-17.44;100.00
62712;BME280;48772;55.586;37.730;2023-01-09T05:47:05;101148.97;;;-17.34;100.00
62712;BME280;48772;55.586;37.730;2023-01-09T05:49:31;101150.06;;;-17.29;100.00
62712;BME280;48772;55.586;37.730;2023-01-09T05:51:57;101165.53;;;-17.26;100.00
62712;BME280;48772;55.586;37.730;2023-01-09T05:54:23;101154.06;;;-17.34;100.00
62712;BME280;48772;55.586;37.730;2023-01-09T05:56:49;101141.81;;;-17.41;100.00
62712;BME280;48772;55.586;37.730;2023-01-09T05:59:15;101145.63;;;-17.33;100.00
62712;BME280;48772;55.586;37.730;2023-01-09T06:01:41;101174.28;;;-17.21;100.00
62712;BME280;48772;55.586;37.730;2023-01-09T06:04:07;101173.13;;;-17.12;100.00
62712;BME280;48772;55.586;37.730;2023-01-09T06:06:33;101165.06;;;-17.19;100.00
62712;BME280;48772;55.586;37.730;2023-01-09T06:09:00;101102.97;;;-17.53;100.00
62712;BME280;48772;55.586;37.730;2023-01-09T06:11:28;101155.19;;;-17.13;100.00
62712;BME280;48772;55.586;37.730;2023-01-09T06:13:54;101164.44;;;-17.15;100.00
62712;BME280;48772;55.586;37.730;2023-01-09T06:16:21;101145.66;;;-17.17;100.00
62712;BME280;48772;55.586;37.730;2023-01-09T06:18:46;101143.41;;;-17.11;100.00
62712;BME280;48772;55.586;37.730;2023-01-09T06:21:12;101154.88;;;-17.03;100.00
62712;BME280;48772;55.586;37.730;2023-01-09T06:23:38;101149.06;;;-17.01;100.00
62712;BME280;48772;55.586;37.730;2023-01-09T06:26:07;101076.31;;;-17.44;100.00
62712;BME280;48772;55.586;37.730;2023-01-09T06:28:33;101133.19;;;-17.11;100.00
62712;BME280;48772;55.586;37.730;2023-01-09T06:30:59;101186.75;;;-16.79;100.00
62712;BME280;48772;55.586;37.730;2023-01-09T06:33:25;101185.78;;;-16.81;100.00
62712;BME280;48772;55.586;37.730;2023-01-09T06:35:50;101170.19;;;-16.87;100.00
62712;BME280;48772;55.586;37.730;2023-01-09T06:38:16;101158.06;;;-16.91;100.00
62712;BME280;48772;55.586;37.730;2023-01-09T06:40:42;101084.53;;;-17.32;100.00
62712;BME280;48772;55.586;37.730;2023-01-09T06:43:08;101165.25;;;-16.84;100.00
62712;BME280;48772;55.586;37.730;2023-01-09T06:45:35;101190.00;;;-16.66;100.00
62712;BME280;48772;55.586;37.730;2023-01-09T06:48:02;101114.72;;;-17.07;100.00
62712;BME280;48772;55.586;37.730;2023-01-09T06:50:28;101182.91;;;-16.71;100.00
62712;BME280;48772;55.586;37.730;2023-01-09T06:52:53;101143.34;;;-16.97;100.00
62712;BME280;48772;55.586;37.730;2023-01-09T06:55:20;101196.94;;;-16.63;100.00
62712;BME280;48772;55.586;37.730;2023-01-09T06:57:45;101170.81;;;-16.75;100.00
62712;BME280;48772;55.586;37.730;2023-01-09T07:00:12;101107.88;;;-17.08;100.00
62712;BME280;48772;55.586;37.730;2023-01-09T07:02:40;101123.09;;;-17.10;100.00
62712;BME280;48772;55.586;37.730;2023-01-09T07:05:07;101169.63;;;-16.82;100.00
62712;BME280;48772;55.586;37.730;2023-01-09T07:07:33;101094.69;;;-17.17;100.00
62712;BME280;48772;55.586;37.730;2023-01-09T07:10:00;101165.53;;;-16.78;100.00
62712;BME280;48772;55.586;37.730;2023-01-09T07:12:26;101181.16;;;-16.72;100.00
62712;BME280;48772;55.586;37.730;2023-01-09T07:14:52;101203.25;;;-16.57;100.00
62712;BME280;48772;55.586;37.730;2023-01-09T07:17:18;101217.81;;;-16.54;100.00
62712;BME280;48772;55.586;37.730;2023-01-09T07:19:43;101147.53;;;-16.81;100.00
62712;BME280;48772;55.586;37.730;2023-01-09T07:22:09;101191.19;;;-16.59;100.00
62712;BME280;48772;55.586;37.730;2023-01-09T07:24:36;101213.78;;;-16.33;100.00
62712;BME280;48772;55.586;37.730;2023-01-09T07:27:03;101221.94;;;-16.40;100.00
62712;BME280;48772;55.586;37.730;2023-01-09T07:29:30;101210.25;;;-16.53;100.00
62712;BME280;48772;55.586;37.730;2023-01-09T07:31:56;101210.97;;;-16.71;100.00
62712;BME280;48772;55.586;37.730;2023-01-09T07:34:22;101186.59;;;-16.98;100.00
62712;BME280;48772;55.586;37.730;2023-01-09T07:36:48;101222.28;;;-16.82;100.00
62712;BME280;48772;55.586;37.730;2023-01-09T07:39:16;101237.75;;;-16.79;100.00
62712;BME280;48772;55.586;37.730;2023-01-09T07:41:42;101181.81;;;-17.08;100.00
62712;BME280;48772;55.586;37.730;2023-01-09T07:44:08;101148.41;;;-17.29;100.00
62712;BME280;48772;55.586;37.730;2023-01-09T07:46:35;101184.19;;;-17.11;100.00
62712;BME280;48772;55.586;37.730;2023-01-09T07:49:01;101230.66;;;-16.69;100.00
62712;BME280;48772;55.586;37.730;2023-01-09T07:51:27;101209.00;;;-16.61;100.00
62712;BME280;48772;55.586;37.730;2023-01-09T07:53:54;101212.00;;;-16.34;100.00
62712;BME280;48772;55.586;37.730;2023-01-09T07:56:20;101242.72;;;-16.33;100.00
62712;BME280;48772;55.586;37.730;2023-01-09T07:58:48;101221.63;;;-16.46;100.00
62712;BME280;48772;55.586;37.730;2023-01-09T08:01:16;101106.78;;;-17.13;100.00
62712;BME280;48772;55.586;37.730;2023-01-09T08:03:42;101248.00;;;-15.96;100.00
62712;BME280;48772;55.586;37.730;2023-01-09T08:06:13;101167.81;;;-15.82;100.00
62712;BME280;48772;55.586;37.730;2023-01-09T08:08:39;101228.28;;;-15.11;100.00
62712;BME280;48772;55.586;37.730;2023-01-09T08:11:05;101220.53;;;-14.57;100.00
62712;BME280;48772;55.586;37.730;2023-01-09T08:13:31;101071.81;;;-15.22;100.00
62712;BME280;48772;55.586;37.730;2023-01-09T08:16:00;101080.53;;;-15.17;100.00
62712;BME280;48772;55.586;37.730;2023-01-09T08:18:41;101072.09;;;-14.95;100.00
62712;BME280;48772;55.586;37.730;2023-01-09T08:21:13;101216.97;;;-14.00;100.00
62712;BME280;48772;55.586;37.730;2023-01-09T08:23:41;101067.00;;;-14.95;100.00
62712;BME280;48772;55.586;37.730;2023-01-09T08:26:11;101126.25;;;-14.46;100.00
62712;BME280;48772;55.586;37.730;2023-01-09T08:28:38;101189.66;;;-14.00;100.00
62712;BME280;48772;55.586;37.730;2023-01-09T08:31:04;101222.47;;;-13.91;100.00
62712;BME280;48772;55.586;37.730;2023-01-09T08:33:30;101149.31;;;-13.63;100.00
62712;BME280;48772;55.586;37.730;2023-01-09T08:35:57;101152.19;;;-12.41;100.00
62712;BME280;48772;55.586;37.730;2023-01-09T08:38:23;101150.22;;;-12.48;100.00
62712;BME280;48772;55.586;37.730;2023-01-09T08:40:49;101165.38;;;-12.05;100.00
62712;BME280;48772;55.586;37.730;2023-01-09T08:43:15;101207.97;;;-11.35;100.00
62712;BME280;48772;55.586;37.730;2023-01-09T08:46:00;101163.09;;;-11.17;100.00
62712;BME280;48772;55.586;37.730;2023-01-09T08:48:53;101197.59;;;-10.52;98.05
62712;BME280;48772;55.586;37.730;2023-01-09T08:51:28;101064.16;;;-11.25;89.90
62712;BME280;48772;55.586;37.730;2023-01-09T08:54:11;101160.88;;;-10.75;86.24
62712;BME280;48772;55.586;37.730;2023-01-09T08:56:46;101149.28;;;-10.59;82.24
62712;BME280;48772;55.586;37.730;2023-01-09T08:59:35;101195.13;;;-9.84;79.29
62712;BME280;48772;55.586;37.730;2023-01-09T09:02:03;101098.44;;;-10.00;75.27
62712;BME280;48772;55.586;37.730;2023-01-09T09:04:33;101080.34;;;-10.01;70.41
62712;BME280;48772;55.586;37.730;2023-01-09T09:07:13;101186.13;;;-9.30;67.13
62712;BME280;48772;55.586;37.730;2023-01-09T09:09:42;101206.38;;;-9.13;64.53
62712;BME280;48772;55.586;37.730;2023-01-09T09:12:09;101148.22;;;-9.68;65.99
62712;BME280;48772;55.586;37.730;2023-01-09T09:14:37;101164.00;;;-9.56;64.44
62712;BME280;48772;55.586;37.730;2023-01-09T09:17:22;101160.06;;;-9.41;63.11
62712;BME280;48772;55.586;37.730;2023-01-09T09:19:58;101088.19;;;-9.97;61.52
62712;BME280;48772;55.586;37.730;2023-01-09T09:22:38;101107.50;;;-9.44;60.69
62712;BME280;48772;55.586;37.730;2023-01-09T09:25:34;101048.38;;;-9.32;60.10
62712;BME280;48772;55.586;37.730;2023-01-09T09:28:38;101037.50;;;-9.58;57.93
62712;BME280;48772;55.586;37.730;2023-01-09T09:31:26;101185.50;;;-7.96;57.05
62712;BME280;48772;55.586;37.730;2023-01-09T09:37:39;101075.63;;;-9.06;53.83
62712;BME280;48772;55.586;37.730;2023-01-09T09:40:44;101093.88;;;-8.54;53.91
62712;BME280;48772;55.586;37.730;2023-01-09T09:43:40;101189.38;;;-8.20;53.31
62712;BME280;48772;55.586;37.730;2023-01-09T09:49:13;101165.22;;;-8.19;54.02
62712;BME280;48772;55.586;37.730;2023-01-09T09:51:52;101154.94;;;-8.16;52.19
62712;BME280;48772;55.586;37.730;2023-01-09T09:54:29;101169.91;;;-7.99;51.81
62712;BME280;48772;55.586;37.730;2023-01-09T09:56:59;101188.34;;;-8.28;52.26
62712;BME280;48772;55.586;37.730;2023-01-09T09:59:31;101176.66;;;-8.93;52.21
62712;BME280;48772;55.586;37.730;2023-01-09T10:04:31;101174.69;;;-8.66;53.84
62712;BME280;48772;55.586;37.730;2023-01-09T10:07:03;101155.78;;;-8.16;52.79
62712;BME280;48772;55.586;37.730;2023-01-09T10:14:31;101183.69;;;-8.01;51.36
62712;BME280;48772;55.586;37.730;2023-01-09T10:22:20;101195.88;;;-8.40;54.48
62712;BME280;48772;55.586;37.730;2023-01-09T10:28:49;101196.19;;;-9.05;56.39
62712;BME280;48772;55.586;37.730;2023-01-09T10:36:46;101185.50;;;-9.20;57.54
62712;BME280;48772;55.586;37.730;2023-01-09T10:39:27;101203.88;;;-9.44;59.74
62712;BME280;48772;55.586;37.730;2023-01-09T10:42:10;101191.59;;;-9.18;61.47
62712;BME280;48772;55.586;37.730;2023-01-09T10:47:37;101153.41;;;-9.31;61.87
62712;BME280;48772;55.586;37.730;2023-01-09T10:50:34;101205.38;;;-9.53;62.66
62712;BME280;48772;55.586;37.730;2023-01-09T10:53:08;101211.53;;;-9.47;64.29
62712;BME280;48772;55.586;37.730;2023-01-09T10:55:44;101209.75;;;-9.14;64.38
62712;BME280;48772;55.586;37.730;2023-01-09T10:58:14;101214.31;;;-8.65;63.04
62712;BME280;48772;55.586;37.730;2023-01-09T11:00:40;101197.97;;;-8.64;61.77
62712;BME280;48772;55.586;37.730;2023-01-09T11:03:19;101181.22;;;-8.81;61.23
62712;BME280;48772;55.586;37.730;2023-01-09T11:05:53;101192.41;;;-8.42;60.32
62712;BME280;48772;55.586;37.730;2023-01-09T11:10:57;101174.66;;;-8.67;60.69
62712;BME280;48772;55.586;37.730;2023-01-09T11:13:28;101170.69;;;-8.90;62.11
62712;BME280;48772;55.586;37.730;2023-01-09T11:18:55;101214.16;;;-10.13;69.44
62712;BME280;48772;55.586;37.730;2023-01-09T11:21:38;101216.56;;;-10.19;73.78
62712;BME280;48772;55.586;37.730;2023-01-09T11:24:24;101160.59;;;-10.23;74.36
62712;BME280;48772;55.586;37.730;2023-01-09T11:27:15;101205.84;;;-9.69;72.88
62712;BME280;48772;55.586;37.730;2023-01-09T11:29:41;101205.13;;;-9.96;73.20
62712;BME280;48772;55.586;37.730;2023-01-09T11:32:22;101224.97;;;-9.61;73.67
62712;BME280;48772;55.586;37.730;2023-01-09T11:34:48;101207.75;;;-9.62;73.34
62712;BME280;48772;55.586;37.730;2023-01-09T11:37:23;101205.81;;;-9.35;71.45
62712;BME280;48772;55.586;37.730;2023-01-09T11:39:50;101186.78;;;-9.40;70.83
62712;BME280;48772;55.586;37.730;2023-01-09T11:42:24;101218.81;;;-8.95;69.42
62712;BME280;48772;55.586;37.730;2023-01-09T11:45:29;101217.78;;;-9.03;67.89
62712;BME280;48772;55.586;37.730;2023-01-09T11:47:57;101207.91;;;-9.19;68.58
62712;BME280;48772;55.586;37.730;2023-01-09T11:50:29;101189.00;;;-9.88;69.81
62712;BME280;48772;55.586;37.730;2023-01-09T11:53:15;101223.88;;;-10.02;73.20
62712;BME280;48772;55.586;37.730;2023-01-09T11:55:42;101218.84;;;-9.97;75.20
62712;BME280;48772;55.586;37.730;2023-01-09T11:58:19;101212.50;;;-10.11;75.62
62712;BME280;48772;55.586;37.730;2023-01-09T12:07:06;101222.66;;;-10.17;77.73
62712;BME280;48772;55.586;37.730;2023-01-09T12:15:26;101222.91;;;-10.39;84.09
62712;BME280;48772;55.586;37.730;2023-01-09T12:18:04;101220.75;;;-10.54;84.43
62712;BME280;48772;55.586;37.730;2023-01-09T12:23:25;101234.56;;;-11.08;87.35
62712;BME280;48772;55.586;37.730;2023-01-09T12:26:01;101236.06;;;-11.15;89.50
62712;BME280;48772;55.586;37.730;2023-01-09T12:43:11;101203.69;;;-13.71;100.00
62712;BME280;48772;55.586;37.730;2023-01-09T12:54:00;101240.19;;;-14.75;100.00
62712;BME280;48772;55.586;37.730;2023-01-09T12:56:29;101262.16;;;-14.98;100.00
62712;BME280;48772;55.586;37.730;2023-01-09T12:59:09;101240.84;;;-15.16;100.00
62712;BME280;48772;55.586;37.730;2023-01-09T13:01:45;101257.22;;;-15.12;100.00
62712;BME280;48772;55.586;37.730;2023-01-09T13:04:23;101260.28;;;-15.19;100.00
62712;BME280;48772;55.586;37.730;2023-01-09T13:06:58;101251.56;;;-15.42;100.00
62712;BME280;48772;55.586;37.730;2023-01-09T13:12:14;101267.06;;;-15.56;100.00
62712;BME280;48772;55.586;37.730;2023-01-09T13:17:44;101277.78;;;-15.63;100.00
62712;BME280;48772;55.586;37.730;2023-01-09T13:22:44;101273.09;;;-15.88;100.00
62712;BME280;48772;55.586;37.730;2023-01-09T13:27:55;101282.22;;;-15.93;100.00
62712;BME280;48772;55.586;37.730;2023-01-09T13:33:25;101264.72;;;-16.19;100.00
62712;BME280;48772;55.586;37.730;2023-01-09T13:35:55;101272.78;;;-16.27;100.00
62712;BME280;48772;55.586;37.730;2023-01-09T13:38:23;101287.63;;;-16.20;100.00
62712;BME280;48772;55.586;37.730;2023-01-09T13:41:10;101308.22;;;-16.17;100.00
62712;BME280;48772;55.586;37.730;2023-01-09T13:44:01;101288.38;;;-16.39;100.00
62712;BME280;48772;55.586;37.730;2023-01-09T13:46:35;101298.63;;;-16.37;100.00
62712;BME280;48772;55.586;37.730;2023-01-09T13:49:02;101236.66;;;-16.84;100.00
62712;BME280;48772;55.586;37.730;2023-01-09T13:54:08;101309.94;;;-16.50;100.00
62712;BME280;48772;55.586;37.730;2023-01-09T13:59:43;101253.34;;;-16.89;100.00
62712;BME280;48772;55.586;37.730;2023-01-09T14:08:10;101315.22;;;-16.77;100.00
62712;BME280;48772;55.586;37.730;2023-01-09T14:13:20;101318.09;;;-16.87;100.00
62712;BME280;48772;55.586;37.730;2023-01-09T14:15:46;101322.47;;;-16.85;100.00
62712;BME280;48772;55.586;37.730;2023-01-09T14:21:05;101305.78;;;-16.94;100.00
62712;BME280;48772;55.586;37.730;2023-01-09T14:26:21;101296.84;;;-17.02;100.00
62712;BME280;48772;55.586;37.730;2023-01-09T14:28:47;101308.09;;;-16.99;100.00
62712;BME280;48772;55.586;37.730;2023-01-09T14:31:28;101307.06;;;-17.02;100.00
62712;BME280;48772;55.586;37.730;2023-01-09T14:34:24;101309.00;;;-17.13;100.00
62712;BME280;48772;55.586;37.730;2023-01-09T14:36:54;101314.97;;;-17.12;100.00
62712;BME280;48772;55.586;37.730;2023-01-09T14:39:23;101314.53;;;-17.05;100.00
62712;BME280;48772;55.586;37.730;2023-01-09T14:41:56;101276.47;;;-17.33;100.00
62712;BME280;48772;55.586;37.730;2023-01-09T14:44:30;101267.47;;;-17.42;100.00
62712;BME280;48772;55.586;37.730;2023-01-09T14:47:05;101327.16;;;-17.23;100.00
62712;BME280;48772;55.586;37.730;2023-01-09T14:49:55;101318.63;;;-17.23;100.00
62712;BME280;48772;55.586;37.730;2023-01-09T14:52:33;101324.88;;;-17.33;100.00
62712;BME280;48772;55.586;37.730;2023-01-09T14:55:02;101317.94;;;-17.35;100.00
62712;BME280;48772;55.586;37.730;2023-01-09T14:57:31;101321.34;;;-17.35;100.00
62712;BME280;48772;55.586;37.730;2023-01-09T15:00:04;101319.50;;;-17.37;100.00